Time;durP1;ratioP1;P1;durP2;ratioP2;P2;SDS_P1;SDS_P2;PMS_P1;PMS_P2;Temp;Humidity;BMP_temperature;BMP_pressure;BME280_temperature;BME280_humidity;BME280_pressure;Samples;Min_cycle;Max_cycle;Signal;HPM_P1;HPM_P2
2022/11/01 00:00:09;;;;;;;31.65;22.15;;;;;;;14.86;67.23;100395.44;4955186;28;96896;-77
2022/11/01 00:02:40;;;;;;;35.08;20.63;;;;;;;14.84;67.52;100390.25;4937818;28;97989;-76
2022/11/01 00:05:06;;;;;;;32.97;21.33;;;;;;;14.83;66.99;100390.31;4954576;28;99307;-76
2022/11/01 00:07:32;;;;;;;31.63;21.40;;;;;;;14.84;66.78;100379.69;4938913;28;97157;-76
2022/11/01 00:09:57;;;;;;;36.13;20.73;;;;;;;14.81;66.61;100374.56;4938654;28;97099;-77
2022/11/01 00:12:23;;;;;;;28.83;20.15;;;;;;;14.88;66.82;100383.00;4935342;28;97526;-78
2022/11/01 00:14:48;;;;;;;30.25;19.92;;;;;;;14.84;66.55;100371.75;4937825;28;101495;-77
2022/11/01 00:17:14;;;;;;;31.88;19.88;;;;;;;14.85;67.58;100368.16;4955536;28;97019;-77
2022/11/01 00:19:39;;;;;;;27.27;19.30;;;;;;;14.86;67.74;100364.59;4939590;28;96998;-77
2022/11/01 00:22:05;;;;;;;27.23;19.00;;;;;;;14.87;67.60;100371.59;4938425;28;98160;-77
2022/11/01 00:24:31;;;;;;;28.33;19.42;;;;;;;14.85;67.53;100373.44;4939095;28;98218;-77
2022/11/01 00:26:57;;;;;;;34.22;21.00;;;;;;;14.79;67.57;100349.97;4922088;28;97955;-77
2022/11/01 00:29:22;;;;;;;28.92;19.08;;;;;;;14.81;67.77;100347.28;4956564;28;96946;-77
2022/11/01 00:31:48;;;;;;;33.38;20.27;;;;;;;14.83;67.74;100359.44;4919626;28;101492;-77
2022/11/01 00:34:15;;;;;;;30.95;20.75;;;;;;;14.76;67.92;100357.22;4938844;28;97398;-77
2022/11/01 00:36:41;;;;;;;33.00;20.95;;;;;;;14.65;67.79;100323.41;4954963;28;97333;-77
2022/11/01 00:39:07;;;;;;;26.55;19.17;;;;;;;14.72;68.01;100345.97;4954091;28;96898;-77
2022/11/01 00:41:33;;;;;;;28.13;19.50;;;;;;;14.70;67.63;100334.59;4951480;28;101113;-77
2022/11/01 00:43:59;;;;;;;25.45;19.05;;;;;;;14.67;67.72;100337.41;4972278;28;101376;-77
2022/11/01 00:46:24;;;;;;;31.38;18.83;;;;;;;14.73;67.93;100344.16;4963758;28;96910;-77
2022/11/01 00:48:50;;;;;;;30.75;20.20;;;;;;;14.66;68.10;100339.19;4938749;28;97158;-77
2022/11/01 00:51:15;;;;;;;24.30;18.73;;;;;;;14.66;67.87;100338.31;4922359;28;100976;-77
2022/11/01 00:53:41;;;;;;;27.45;20.30;;;;;;;14.64;68.19;100337.56;4938276;28;97419;-76
2022/11/01 00:56:07;;;;;;;29.92;19.27;;;;;;;14.61;67.67;100322.72;4937327;28;97294;-77
2022/11/01 00:58:33;;;;;;;32.05;20.38;;;;;;;14.68;67.78;100336.47;4928201;28;97270;-79
2022/11/01 01:00:58;;;;;;;28.60;20.45;;;;;;;14.53;67.88;100327.53;4941062;28;101193;-76
2022/11/01 01:03:24;;;;;;;26.60;19.55;;;;;;;14.50;68.24;100325.00;4939199;28;98380;-77
2022/11/01 01:05:51;;;;;;;31.63;19.05;;;;;;;14.52;68.20;100324.97;4937042;28;97101;-77
2022/11/01 01:08:17;;;;;;;25.48;18.02;;;;;;;14.55;68.00;100328.31;4950702;28;96796;-77
2022/11/01 01:10:43;;;;;;;26.00;19.42;;;;;;;14.52;67.75;100327.63;4958000;28;98026;-77
2022/11/01 01:13:08;;;;;;;28.83;19.95;;;;;;;14.40;67.92;100300.84;4960463;28;97360;-76
2022/11/01 01:15:34;;;;;;;25.20;18.00;;;;;;;14.49;67.71;100315.38;4939004;28;96826;-77
2022/11/01 01:18:00;;;;;;;30.25;20.00;;;;;;;14.54;67.56;100315.16;4940648;28;97605;-77
2022/11/01 01:20:25;;;;;;;27.23;18.92;;;;;;;14.43;67.35;100308.63;4953871;28;101088;-77
2022/11/01 01:22:51;;;;;;;27.08;18.17;;;;;;;14.35;68.13;100310.78;4956074;28;99210;-77
2022/11/01 01:25:17;;;;;;;28.15;18.35;;;;;;;14.30;67.41;100294.31;4974606;28;97165;-77
2022/11/01 01:27:42;;;;;;;23.85;18.10;;;;;;;14.39;67.29;100298.28;4957736;28;96928;-77
2022/11/01 01:30:11;;;;;;;26.58;18.05;;;;;;;14.33;67.02;100288.88;4940891;28;97971;-77
2022/11/01 01:32:37;;;;;;;27.60;18.60;;;;;;;14.30;67.48;100304.03;4966989;28;101457;-77
2022/11/01 01:35:03;;;;;;;26.92;18.50;;;;;;;14.31;67.12;100298.69;4956916;28;98125;-77
2022/11/01 01:37:28;;;;;;;22.88;17.27;;;;;;;14.22;67.58;100276.22;4956911;28;97192;-78
2022/11/01 01:39:54;;;;;;;26.85;18.33;;;;;;;14.37;67.36;100292.22;4956357;28;101976;-77
2022/11/01 01:42:37;;;;;;;26.75;18.20;;;;;;;14.25;67.23;100270.78;4940323;28;101361;-78
2022/11/01 01:45:20;;;;;;;26.42;17.80;;;;;;;14.38;67.10;100291.31;4924461;28;96954;-80
2022/11/01 01:47:48;;;;;;;25.67;18.90;;;;;;;14.35;66.90;100289.66;4958191;28;97263;-82
2022/11/01 01:50:27;;;;;;;26.08;17.77;;;;;;;14.29;66.61;100286.47;4955310;28;101025;-80
2022/11/01 01:53:04;;;;;;;29.50;18.70;;;;;;;14.30;66.39;100286.41;4938774;28;101031;-77
2022/11/01 01:55:40;;;;;;;23.63;16.95;;;;;;;14.19;66.76;100272.88;4941141;28;97039;-78
2022/11/01 01:58:08;;;;;;;23.05;17.02;;;;;;;14.23;66.58;100285.84;4956794;28;97125;-77
2022/11/01 02:00:34;;;;;;;25.35;18.77;;;;;;;14.23;66.68;100267.38;4940036;28;101446;-77
2022/11/01 02:02:59;;;;;;;26.20;18.55;;;;;;;14.16;67.05;100260.66;4940366;28;101305;-77
2022/11/01 02:06:11;;;;;;;27.80;19.10;;;;;;;14.16;66.80;100265.94;4927268;28;96670;-77
2022/11/01 02:08:39;;;;;;;28.13;18.27;;;;;;;14.04;67.21;100248.94;4935073;28;97099;-77
2022/11/01 02:11:06;;;;;;;25.95;17.75;;;;;;;14.08;66.75;100254.94;4955356;28;97534;-78
2022/11/01 02:13:31;;;;;;;26.40;17.98;;;;;;;14.09;66.92;100259.28;4956756;28;101182;-77
2022/11/01 02:16:20;;;;;;;24.27;16.98;;;;;;;14.10;66.16;100258.34;4940448;28;97314;-77
2022/11/01 02:18:57;;;;;;;26.85;16.70;;;;;;;14.08;66.56;100256.69;4921086;28;96867;-77
2022/11/01 02:21:41;;;;;;;24.58;18.55;;;;;;;14.03;66.75;100251.66;4957305;28;101379;-77
2022/11/01 02:24:32;;;;;;;25.83;17.05;;;;;;;13.89;66.70;100252.34;4936167;28;101516;-77
2022/11/01 02:27:07;;;;;;;26.23;18.63;;;;;;;13.84;66.75;100235.88;4955546;28;97212;-79
2022/11/01 02:29:42;;;;;;;24.92;17.13;;;;;;;13.82;66.47;100235.13;4940596;28;96977;-77
2022/11/01 02:32:57;;;;;;;28.98;19.40;;;;;;;13.81;66.53;100250.06;4956362;28;97564;-78
2022/11/01 02:35:28;;;;;;;30.73;18.75;;;;;;;13.59;67.42;100252.91;4954675;28;100881;-79
2022/11/01 02:38:28;;;;;;;30.35;19.27;;;;;;;13.72;67.50;100254.94;4955858;28;97056;-80
2022/11/01 02:41:17;;;;;;;29.40;18.80;;;;;;;13.70;67.55;100244.47;4943280;28;97286;-79
2022/11/01 02:44:03;;;;;;;25.15;17.83;;;;;;;13.63;66.85;100229.84;4969011;28;100859;-79
2022/11/01 02:49:34;;;;;;;22.27;17.35;;;;;;;13.77;66.40;100250.31;4942974;28;97233;-77
2022/11/01 02:52:01;;;;;;;31.08;18.55;;;;;;;13.76;65.89;100248.59;4956359;28;97380;-77
2022/11/01 02:54:38;;;;;;;23.75;17.92;;;;;;;13.75;66.19;100247.72;4956470;28;101062;-76
2022/11/01 02:57:16;;;;;;;23.13;17.67;;;;;;;13.76;66.16;100251.25;4953623;28;101526;-77
2022/11/01 02:59:44;;;;;;;23.75;18.52;;;;;;;13.70;65.54;100244.47;4935932;28;97354;-77
2022/11/01 03:02:19;;;;;;;29.92;20.02;;;;;;;13.74;65.79;100247.81;4951028;28;96832;-77
2022/11/01 03:04:46;;;;;;;29.17;21.90;;;;;;;13.71;65.53;100248.81;4934957;28;101761;-77
2022/11/01 03:07:12;;;;;;;29.13;19.35;;;;;;;13.64;65.57;100228.06;4952858;28;101329;-77
2022/11/01 03:09:39;;;;;;;29.25;20.50;;;;;;;13.54;65.98;100212.69;4953910;28;96912;-77
2022/11/01 03:12:25;;;;;;;34.10;21.48;;;;;;;13.45;66.18;100205.22;4938587;28;97125;-77
2022/11/01 03:14:58;;;;;;;28.60;20.67;;;;;;;13.57;65.80;100222.25;4939354;28;102537;-84
2022/11/01 03:17:33;;;;;;;30.08;19.63;;;;;;;13.43;66.21;100203.59;4956335;28;101610;-79
2022/11/01 03:20:03;;;;;;;28.58;20.15;;;;;;;13.47;66.56;100216.56;4926760;28;96777;-80
2022/11/01 03:22:48;;;;;;;29.83;19.70;;;;;;;13.48;66.92;100214.78;4964842;28;96638;-79
2022/11/01 03:25:39;;;;;;;33.20;22.00;;;;;;;13.46;67.22;100225.38;4958773;28;98574;-80
2022/11/01 03:28:20;;;;;;;35.40;23.15;;;;;;;13.46;67.63;100221.91;4971176;28;101596;-80
2022/11/01 03:30:55;;;;;;;32.43;21.67;;;;;;;13.21;68.26;100227.44;4952495;28;97637;-81
2022/11/01 03:33:21;;;;;;;33.97;21.13;;;;;;;13.19;68.18;100216.13;4936729;28;97262;-79
2022/11/01 03:35:48;;;;;;;33.08;21.98;;;;;;;13.26;68.75;100220.19;4937352;28;101660;-81
2022/11/01 03:38:19;;;;;;;35.95;21.10;;;;;;;13.30;68.27;100222.63;4969089;28;97343;-79
2022/11/01 03:40:49;;;;;;;31.05;20.77;;;;;;;13.27;68.58;100219.28;4953423;28;96720;-80
2022/11/01 03:43:16;;;;;;;34.40;23.10;;;;;;;13.31;67.70;100220.84;4949917;28;96928;-80
2022/11/01 03:45:42;;;;;;;32.92;23.85;;;;;;;13.23;67.94;100213.25;4929456;28;101211;-80
2022/11/01 03:48:07;;;;;;;34.90;22.40;;;;;;;13.21;67.85;100217.75;4953880;28;97460;-79
2022/11/01 03:50:33;;;;;;;34.22;21.60;;;;;;;13.17;68.04;100226.72;4921931;28;96671;-79
2022/11/01 03:52:59;;;;;;;36.83;22.83;;;;;;;13.17;67.94;100218.81;4936066;28;96973;-80
2022/11/01 03:55:25;;;;;;;34.13;21.45;;;;;;;13.22;67.91;100227.38;4952483;28;97583;-79
2022/11/01 03:57:52;;;;;;;35.83;21.25;;;;;;;13.14;67.78;100216.31;4951974;28;101131;-81
2022/11/01 04:00:23;;;;;;;33.55;22.70;;;;;;;13.28;67.66;100221.84;4955998;28;96910;-79
2022/11/01 04:02:50;;;;;;;27.70;21.10;;;;;;;13.21;67.90;100207.22;4935605;28;97294;-78
2022/11/01 04:05:17;;;;;;;38.78;23.45;;;;;;;13.22;67.89;100210.69;4952500;28;100745;-80
2022/11/01 04:07:42;;;;;;;38.88;23.08;;;;;;;13.10;67.64;100198.94;4936315;28;101597;-79
2022/11/01 04:10:08;;;;;;;37.33;22.40;;;;;;;13.06;68.33;100184.19;4905779;28;97224;-79
2022/11/01 04:12:34;;;;;;;35.88;23.27;;;;;;;13.07;68.46;100209.63;4952519;28;97109;-80
2022/11/01 04:20:31;;;;;;;29.60;21.92;;;;;;;13.09;67.78;100213.91;4941961;28;97116;-80
2022/11/01 04:23:04;;;;;;;36.45;23.35;;;;;;;13.08;67.70;100224.50;4935752;28;97306;-80
2022/11/01 04:25:31;;;;;;;36.67;22.50;;;;;;;12.99;67.68;100201.22;4952489;28;98099;-79
2022/11/01 04:27:57;;;;;;;41.60;24.60;;;;;;;13.00;67.46;100216.09;4952023;28;98102;-80
2022/11/01 04:30:28;;;;;;;47.33;26.77;;;;;;;13.01;67.83;100207.28;4922513;28;97545;-79
2022/11/01 04:32:53;;;;;;;35.87;24.33;;;;;;;12.93;68.28;100218.16;4947559;28;97322;-83
2022/11/01 04:35:20;;;;;;;44.05;25.55;;;;;;;12.87;68.30;100211.38;4956138;28;97973;-77
2022/11/01 04:37:46;;;;;;;41.05;25.95;;;;;;;12.90;68.44;100213.03;4952479;28;100793;-80
2022/11/01 04:40:12;;;;;;;40.33;25.52;;;;;;;12.93;68.22;100228.69;4951297;28;97157;-79
2022/11/01 04:42:39;;;;;;;44.30;27.15;;;;;;;12.83;68.04;100195.81;4935328;28;97022;-80
2022/11/01 04:45:06;;;;;;;42.40;26.33;;;;;;;12.95;67.99;100220.75;4935513;28;97702;-79
2022/11/01 04:47:32;;;;;;;42.17;26.52;;;;;;;12.96;67.98;100217.16;4968762;28;98024;-78
2022/11/01 04:49:57;;;;;;;37.70;26.05;;;;;;;12.83;67.97;100198.44;4933268;28;97150;-80
2022/11/01 04:52:23;;;;;;;39.50;24.02;;;;;;;12.92;67.95;100219.09;4950900;28;97467;-81
2022/11/01 04:54:49;;;;;;;41.88;26.50;;;;;;;13.01;67.75;100215.19;4919239;28;101245;-79
2022/11/01 04:57:24;;;;;;;40.95;24.63;;;;;;;12.79;67.89;100205.59;4951309;28;101038;-80
2022/11/01 04:59:50;;;;;;;47.20;26.92;;;;;;;12.77;68.49;100209.22;4937595;28;97069;-79
2022/11/01 05:02:17;;;;;;;39.10;25.50;;;;;;;12.84;68.04;100213.31;4951976;28;97556;-79
2022/11/01 05:04:42;;;;;;;45.65;27.20;;;;;;;12.79;68.09;100200.34;4952048;28;101505;-79
2022/11/01 05:07:08;;;;;;;41.33;26.80;;;;;;;12.77;68.50;100196.06;4933500;28;100922;-80
2022/11/01 05:09:33;;;;;;;47.45;28.33;;;;;;;12.76;68.60;100199.63;4976669;28;97414;-81
2022/11/01 05:11:59;;;;;;;51.90;28.05;;;;;;;12.63;69.04;100192.28;4934346;28;97490;-79
2022/11/01 05:14:24;;;;;;;57.03;30.48;;;;;;;12.41;69.42;100192.34;4951807;28;98105;-79
2022/11/01 05:16:50;;;;;;;55.05;29.13;;;;;;;12.36;69.49;100196.09;4936546;28;97577;-79
2022/11/01 05:19:15;;;;;;;58.80;31.25;;;;;;;12.19;69.99;100175.81;4935981;28;96682;-79
2022/11/01 05:21:41;;;;;;;65.60;30.50;;;;;;;12.29;69.91;100178.88;4935610;28;96896;-79
2022/11/01 05:24:07;;;;;;;57.05;32.33;;;;;;;11.98;70.88;100162.66;4932993;28;97566;-79
2022/11/01 05:26:33;;;;;;;54.53;31.08;;;;;;;12.01;70.87;100172.16;4948136;28;98469;-80
2022/11/01 05:28:58;;;;;;;54.00;29.75;;;;;;;11.94;70.59;100163.69;4950498;28;96857;-80
2022/11/01 05:31:24;;;;;;;50.05;30.05;;;;;;;11.94;70.70;100162.81;4935264;28;96936;-78
2022/11/01 05:33:49;;;;;;;47.92;28.40;;;;;;;12.02;70.83;100175.66;4935159;28;100992;-79
2022/11/01 05:36:15;;;;;;;50.10;28.10;;;;;;;12.17;70.37;100210.06;4935412;28;101687;-79
2022/11/01 05:38:41;;;;;;;50.85;30.77;;;;;;;12.19;70.08;100197.72;4918747;28;96968;-79
2022/11/01 05:41:06;;;;;;;49.70;29.90;;;;;;;12.34;69.47;100211.13;4932233;28;97395;-80
2022/11/01 05:43:32;;;;;;;49.17;29.45;;;;;;;12.35;69.27;100205.78;4966927;28;97958;-79
2022/11/01 05:45:57;;;;;;;51.78;29.48;;;;;;;12.33;69.71;100212.03;4938030;28;101171;-84
2022/11/01 05:48:23;;;;;;;46.97;28.55;;;;;;;12.37;69.61;100209.22;4939590;28;96603;-79
2022/11/01 05:50:49;;;;;;;53.28;29.27;;;;;;;12.39;69.59;100196.84;4939672;28;96753;-79
2022/11/01 05:53:14;;;;;;;42.30;28.80;;;;;;;12.36;68.96;100190.84;4925520;28;101336;-78
2022/11/01 05:55:40;;;;;;;50.78;30.65;;;;;;;12.28;69.72;100204.34;4952423;28;97442;-77
2022/11/01 05:58:06;;;;;;;51.40;29.30;;;;;;;12.33;69.59;100207.63;4938022;28;97889;-78
2022/11/01 06:00:32;;;;;;;52.95;29.95;;;;;;;12.40;69.41;100195.06;4953242;28;97244;-79
2022/11/01 06:02:58;;;;;;;45.85;28.55;;;;;;;12.29;69.27;100189.41;4934426;28;101557;-82
2022/11/01 06:05:25;;;;;;;51.65;29.08;;;;;;;12.26;69.16;100181.66;4954737;28;100707;-78
2022/11/01 06:07:51;;;;;;;51.40;29.88;;;;;;;12.32;69.49;100205.06;4954084;28;96696;-78
2022/11/01 06:10:16;;;;;;;52.13;30.92;;;;;;;12.22;69.39;100213.38;4936041;28;97639;-78
2022/11/01 06:12:42;;;;;;;45.85;28.25;;;;;;;12.16;69.32;100215.41;4939839;28;100901;-78
2022/11/01 06:15:07;;;;;;;45.20;28.60;;;;;;;12.24;69.01;100205.38;4934286;28;101295;-77
2022/11/01 06:17:33;;;;;;;46.65;26.27;;;;;;;12.28;69.13;100212.25;4947737;28;97049;-78
2022/11/01 06:19:59;;;;;;;49.75;27.85;;;;;;;12.28;69.01;100221.94;4937237;28;96978;-82
2022/11/01 06:22:24;;;;;;;43.35;26.60;;;;;;;12.39;68.84;100233.72;4916705;28;101173;-78
2022/11/01 06:24:50;;;;;;;46.75;26.90;;;;;;;12.43;68.74;100227.38;4935779;28;100974;-77
2022/11/01 06:27:15;;;;;;;56.25;29.45;;;;;;;12.45;68.64;100241.34;4948257;28;97432;-80
2022/11/01 06:29:41;;;;;;;48.85;26.65;;;;;;;12.41;69.10;100250.28;4958611;28;96968;-80
2022/11/01 06:32:07;;;;;;;48.17;27.52;;;;;;;12.49;69.43;100262.25;4949450;28;101706;-80
2022/11/01 06:34:32;;;;;;;43.88;28.00;;;;;;;12.46;68.82;100256.19;4926861;28;97520;-80
2022/11/01 06:36:58;;;;;;;40.25;24.95;;;;;;;12.40;69.48;100260.88;4935191;28;97345;-84
2022/11/01 06:39:24;;;;;;;42.17;25.88;;;;;;;12.46;69.00;100265.88;4943327;28;97460;-81
2022/11/01 06:41:50;;;;;;;43.45;24.75;;;;;;;12.42;69.10;100259.00;4956346;28;101147;-79
2022/11/01 06:44:16;;;;;;;43.30;25.95;;;;;;;12.52;68.77;100270.88;4946303;28;97622;-79
2022/11/01 06:46:41;;;;;;;44.45;25.30;;;;;;;12.54;69.08;100269.06;4946080;28;97436;-80
2022/11/01 06:49:07;;;;;;;41.83;26.23;;;;;;;12.60;69.10;100254.75;4954410;28;97899;-79
2022/11/01 06:51:33;;;;;;;45.38;27.98;;;;;;;12.59;68.56;100264.41;4949919;28;97961;-80
2022/11/01 06:53:58;;;;;;;43.78;25.85;;;;;;;12.62;68.85;100255.53;4944364;28;101784;-82
2022/11/01 06:56:24;;;;;;;44.67;24.70;;;;;;;12.65;68.62;100265.94;4928595;28;97446;-80
2022/11/01 06:58:50;;;;;;;49.60;26.38;;;;;;;12.57;68.54;100252.25;4950118;28;96971;-80
2022/11/01 07:01:17;;;;;;;43.15;26.70;;;;;;;12.54;68.56;100255.03;4952130;28;101649;-80
2022/11/01 07:03:44;;;;;;;37.70;25.13;;;;;;;12.65;68.50;100261.53;4939455;28;99912;-79
2022/11/01 07:06:10;;;;;;;41.60;23.63;;;;;;;12.68;68.92;100260.53;4964544;28;97581;-80
2022/11/01 07:08:36;;;;;;;38.25;25.55;;;;;;;12.76;69.02;100270.75;4967939;28;97350;-80
2022/11/01 07:11:01;;;;;;;39.33;24.42;;;;;;;12.70;68.53;100269.22;4926960;28;101148;-83
2022/11/01 07:13:32;;;;;;;41.97;25.63;;;;;;;12.78;68.45;100287.34;4934769;28;101479;-80
2022/11/01 07:16:00;;;;;;;53.97;25.15;;;;;;;12.75;68.72;100269.03;4914829;28;97123;-80
2022/11/01 07:18:28;;;;;;;39.03;24.10;;;;;;;12.89;68.23;100278.03;4962372;28;98508;-79
2022/11/01 07:20:54;;;;;;;37.45;24.02;;;;;;;12.91;68.29;100292.00;4951547;28;97657;-80
2022/11/01 07:23:19;;;;;;;32.92;22.90;;;;;;;12.89;68.78;100283.31;4942793;28;97339;-81
2022/11/01 07:25:50;;;;;;;37.97;23.67;;;;;;;13.03;68.02;100287.09;4959810;28;97421;-82
2022/11/01 07:28:16;;;;;;;38.77;26.13;;;;;;;13.03;68.50;100274.81;4962157;28;97223;-81
2022/11/01 07:30:41;;;;;;;48.90;27.90;;;;;;;13.13;68.11;100276.06;4941065;28;101113;-83
2022/11/01 07:33:07;;;;;;;46.78;27.92;;;;;;;13.01;68.03;100254.72;4929901;28;101212;-81
2022/11/01 07:35:33;;;;;;;42.13;27.25;;;;;;;13.12;67.72;100279.66;4937689;28;96803;-81
2022/11/01 07:37:59;;;;;;;43.95;26.42;;;;;;;13.22;67.80;100272.16;4927311;28;97785;-81
2022/11/01 07:40:28;;;;;;;40.45;25.67;;;;;;;13.35;67.58;100275.13;4935047;28;98317;-81
2022/11/01 07:42:57;;;;;;;37.15;24.45;;;;;;;13.41;67.29;100276.63;4935991;28;101733;-81
2022/11/01 07:45:23;;;;;;;37.70;24.80;;;;;;;13.50;67.38;100271.78;4950204;28;97018;-82
2022/11/01 07:47:48;;;;;;;38.08;25.13;;;;;;;13.46;67.25;100266.72;4943620;28;96653;-83
2022/11/01 07:50:14;;;;;;;38.90;25.05;;;;;;;13.52;67.59;100272.56;4934747;28;101244;-83
2022/11/01 07:52:39;;;;;;;37.97;23.55;;;;;;;13.59;67.20;100252.91;4952926;28;100898;-81
2022/11/01 07:55:06;;;;;;;38.75;23.80;;;;;;;13.95;66.52;100264.38;4935196;28;97280;-81
2022/11/01 07:57:36;;;;;;;32.45;22.02;;;;;;;14.14;66.49;100267.84;4945826;28;97001;-80
2022/11/01 08:00:03;;;;;;;35.67;21.98;;;;;;;14.36;66.20;100264.09;4950672;28;98626;-81
2022/11/01 08:02:37;;;;;;;31.88;22.33;;;;;;;14.66;65.55;100283.72;4946806;28;97844;-80
2022/11/01 08:05:03;;;;;;;36.67;21.98;;;;;;;14.64;65.02;100272.38;4950270;28;96824;-81
2022/11/01 08:07:29;;;;;;;33.20;20.92;;;;;;;14.65;64.52;100275.84;4931840;28;97234;-80
2022/11/01 08:09:54;;;;;;;30.00;20.30;;;;;;;14.81;64.72;100271.50;4934943;28;101284;-80
2022/11/01 08:12:20;;;;;;;32.38;21.98;;;;;;;15.04;64.35;100286.16;4934935;28;97491;-79
2022/11/01 08:14:45;;;;;;;38.03;21.77;;;;;;;14.96;63.98;100283.06;4934330;28;97335;-81
2022/11/01 08:17:11;;;;;;;29.63;19.90;;;;;;;14.88;64.17;100282.59;4967577;28;96896;-81
2022/11/01 08:19:37;;;;;;;28.92;19.88;;;;;;;14.69;63.82;100265.06;4924810;28;101579;-85
2022/11/01 08:22:02;;;;;;;29.00;20.58;;;;;;;14.85;64.09;100275.69;4951249;28;101186;-87
2022/11/01 08:24:28;;;;;;;31.80;20.88;;;;;;;14.90;63.36;100271.00;4935300;28;97463;-84
2022/11/01 08:26:54;;;;;;;30.60;20.67;;;;;;;14.70;63.43;100242.13;4937713;28;97332;-79
2022/11/01 08:29:20;;;;;;;29.80;19.92;;;;;;;14.75;63.41;100269.19;4920951;28;100813;-75
2022/11/01 08:31:46;;;;;;;25.98;19.77;;;;;;;14.67;63.66;100261.63;4929592;28;100804;-74
2022/11/01 08:34:11;;;;;;;27.42;18.90;;;;;;;14.66;63.94;100270.50;4929671;28;97823;-75
2022/11/01 08:36:37;;;;;;;26.02;18.50;;;;;;;14.67;64.12;100261.63;4947186;28;97116;-77
2022/11/01 08:39:03;;;;;;;28.25;20.38;;;;;;;14.66;63.99;100270.50;4953110;28;98094;-81
2022/11/01 08:41:28;;;;;;;28.52;22.15;;;;;;;14.77;64.14;100264.66;4935564;28;101140;-80
2022/11/01 08:43:54;;;;;;;27.85;20.25;;;;;;;14.82;63.89;100270.56;4932830;28;97904;-80
2022/11/01 08:46:19;;;;;;;25.13;18.75;;;;;;;15.05;63.36;100271.13;4956964;28;96997;-78
2022/11/01 08:48:51;;;;;;;26.40;18.75;;;;;;;15.14;63.69;100279.41;4946619;28;97951;-80
2022/11/01 08:51:23;;;;;;;28.55;19.88;;;;;;;15.24;62.95;100258.66;4947860;28;97683;-78
2022/11/01 08:53:49;;;;;;;25.23;18.20;;;;;;;15.30;63.09;100257.44;4949081;28;97261;-76
2022/11/01 08:56:15;;;;;;;23.10;17.08;;;;;;;15.66;62.67;100272.22;4950606;28;96979;-77
2022/11/01 08:58:40;;;;;;;25.27;17.50;;;;;;;15.75;62.59;100274.38;4944288;28;97512;-75
2022/11/01 09:01:06;;;;;;;24.08;17.85;;;;;;;15.72;62.53;100275.41;4934114;28;101411;-76
2022/11/01 09:03:31;;;;;;;24.85;18.17;;;;;;;16.27;61.63;100276.69;4932704;28;96933;-75
2022/11/01 09:05:57;;;;;;;24.63;16.83;;;;;;;16.83;60.62;100279.59;4931825;28;97078;-75
2022/11/01 09:08:22;;;;;;;25.13;16.63;;;;;;;17.29;59.38;100272.31;4944543;28;98217;-75
2022/11/01 09:10:48;;;;;;;25.02;16.98;;;;;;;17.88;58.36;100277.44;4931560;28;101434;-75
2022/11/01 09:13:14;;;;;;;20.85;15.40;;;;;;;18.26;57.25;100250.97;4931402;28;97473;-83
2022/11/01 09:15:40;;;;;;;25.05;17.65;;;;;;;18.74;55.82;100269.06;4953739;28;97195;-83
2022/11/01 09:18:06;;;;;;;23.52;16.13;;;;;;;18.72;55.69;100255.84;4936591;28;101552;-87
2022/11/01 09:20:32;;;;;;;23.02;16.08;;;;;;;18.55;55.73;100277.41;4936072;28;97912;-76
2022/11/01 09:22:58;;;;;;;20.52;15.52;;;;;;;18.59;55.92;100262.97;4951246;28;97782;-75
2022/11/01 09:25:24;;;;;;;21.70;14.90;;;;;;;18.77;55.74;100279.50;4945113;28;97466;-74
2022/11/01 09:27:49;;;;;;;20.70;14.82;;;;;;;18.96;55.33;100277.25;4970018;28;101112;-75
2022/11/01 09:30:15;;;;;;;19.67;15.05;;;;;;;19.08;54.81;100280.88;4964349;28;101345;-81
2022/11/01 09:32:41;;;;;;;21.60;15.60;;;;;;;19.12;54.75;100279.69;4972425;28;97029;-80
2022/11/01 09:35:07;;;;;;;19.63;13.85;;;;;;;19.48;54.06;100261.22;4939131;28;96889;-82
2022/11/01 09:37:33;;;;;;;21.85;13.32;;;;;;;19.95;53.55;100289.72;4965206;28;101902;-80
2022/11/01 09:39:59;;;;;;;21.70;14.02;;;;;;;20.08;53.32;100285.22;4956012;28;97457;-80
2022/11/01 09:42:38;;;;;;;16.60;13.05;;;;;;;20.06;53.54;100284.47;4941989;28;96957;-82
2022/11/01 09:45:14;;;;;;;18.00;13.02;;;;;;;19.87;53.07;100292.97;4936049;28;97057;-85
2022/11/01 09:47:44;;;;;;;18.75;12.23;;;;;;;20.16;52.98;100284.66;4970381;28;97754;-83
2022/11/01 09:50:24;;;;;;;17.58;11.93;;;;;;;20.35;52.71;100292.09;4955630;28;98363;-82
2022/11/01 09:52:50;;;;;;;13.80;11.80;;;;;;;20.37;53.11;100271.50;4937751;28;96794;-82
2022/11/01 09:55:19;;;;;;;18.35;12.18;;;;;;;20.46;52.46;100270.81;4966208;28;96965;-81
2022/11/01 09:58:07;;;;;;;16.48;12.25;;;;;;;20.48;52.29;100278.72;4957387;28;97834;-81
2022/11/01 10:00:36;;;;;;;21.33;12.68;;;;;;;20.28;52.82;100282.88;4947241;28;101259;-79
2022/11/01 10:03:08;;;;;;;15.43;12.60;;;;;;;20.25;52.50;100288.44;4973302;28;97897;-79
2022/11/01 10:05:33;;;;;;;16.27;11.35;;;;;;;20.00;53.70;100286.75;4965332;28;97602;-79
2022/11/01 10:08:28;;;;;;;14.35;11.65;;;;;;;19.88;53.92;100305.31;4935747;28;101520;-79
2022/11/01 10:11:22;;;;;;;18.92;12.43;;;;;;;19.68;54.43;100295.25;4948829;28;101033;-79
2022/11/01 10:13:53;;;;;;;15.50;11.52;;;;;;;19.55;55.21;100307.75;4932410;28;96776;-79
2022/11/01 10:16:42;;;;;;;17.90;12.30;;;;;;;19.29;55.97;100312.25;4938374;28;97199;-78
2022/11/01 10:19:18;;;;;;;19.05;12.05;;;;;;;19.09;56.39;100300.34;4948167;28;101589;-81
2022/11/01 10:21:47;;;;;;;16.00;11.85;;;;;;;19.05;56.92;100305.00;4954060;28;97957;-78
2022/11/01 10:24:21;;;;;;;20.80;14.02;;;;;;;18.80;57.14;100289.91;4922489;28;96749;-79
2022/11/01 10:26:53;;;;;;;20.38;13.90;;;;;;;18.66;57.15;100285.50;4954684;28;96829;-79
2022/11/01 10:29:50;;;;;;;15.40;12.60;;;;;;;18.71;57.66;100304.66;4936941;28;101881;-79
2022/11/01 10:32:22;;;;;;;17.63;12.25;;;;;;;18.68;57.89;100304.88;4929853;28;100950;-79
2022/11/01 10:34:48;;;;;;;15.07;11.73;;;;;;;18.75;57.74;100297.34;4936357;28;96812;-79
2022/11/01 10:37:26;;;;;;;19.17;12.45;;;;;;;18.69;58.13;100287.09;4935319;28;96981;-79
2022/11/01 10:40:01;;;;;;;15.05;12.23;;;;;;;18.76;58.22;100285.75;4914968;28;101465;-79
2022/11/01 10:42:28;;;;;;;14.98;12.75;;;;;;;18.80;58.21;100289.06;4940538;28;98475;-79
2022/11/01 10:44:59;;;;;;;14.40;12.25;;;;;;;18.78;58.44;100295.31;4933672;28;97416;-79
2022/11/01 10:47:26;;;;;;;16.38;11.02;;;;;;;18.82;58.48;100296.00;4978125;28;97178;-79
2022/11/01 10:50:06;;;;;;;15.02;10.63;;;;;;;18.78;58.71;100305.97;4938664;28;101887;-82
2022/11/01 10:52:43;;;;;;;14.90;8.43;;;;;;;18.70;58.96;100295.00;4935091;28;101466;-79
2022/11/01 10:55:12;;;;;;;10.35;6.97;;;;;;;18.73;58.64;100316.09;4931260;28;96854;-79
2022/11/01 10:57:43;;;;;;;8.98;6.13;;;;;;;18.66;59.18;100308.59;4943362;28;97227;-80
2022/11/01 11:00:15;;;;;;;10.20;6.20;;;;;;;18.66;59.38;100317.41;4951718;28;98018;-79
2022/11/01 11:02:47;;;;;;;9.85;5.10;;;;;;;18.65;59.17;100307.75;4951262;28;101489;-80
2022/11/01 11:05:14;;;;;;;14.63;6.60;;;;;;;18.68;59.19;100307.53;4923905;28;97131;-82
2022/11/01 11:07:40;;;;;;;8.18;5.00;;;;;;;18.67;58.75;100313.78;4937750;28;97191;-77
2022/11/01 11:10:16;;;;;;;15.85;4.90;;;;;;;18.67;58.54;100310.28;4952766;28;101888;-79
2022/11/01 11:12:42;;;;;;;7.97;4.90;;;;;;;18.73;58.33;100315.16;4921834;28;100642;-82
2022/11/01 11:15:18;;;;;;;7.60;4.85;;;;;;;18.78;58.03;100323.72;4950827;28;97120;-78
2022/11/01 11:17:45;;;;;;;7.43;4.78;;;;;;;18.78;57.93;100318.41;4932536;28;96804;-80
2022/11/01 11:20:12;;;;;;;17.42;9.05;;;;;;;18.95;59.65;100311.94;4943691;28;98044;-77
2022/11/01 11:22:40;;;;;;;7.90;5.53;;;;;;;18.88;58.41;100303.53;4923595;28;101629;-79